sensor_id;sensor_type;location;lat;lon;timestamp;pressure;altitude;pressure_sealevel;temperature;humidity
70338;BME280;57757;53.198;19.646;2023-04-03T00:01:17;101087.58;;;0.34;63.95
70338;BME280;57757;53.198;19.646;2023-04-03T00:03:45;101091.13;;;0.33;63.93
70338;BME280;57757;53.198;19.646;2023-04-03T00:06:13;101090.91;;;0.32;63.93
70338;BME280;57757;53.198;19.646;2023-04-03T00:08:40;101090.35;;;0.31;63.90
70338;BME280;57757;53.198;19.646;2023-04-03T00:11:08;101094.79;;;0.30;63.87
70338;BME280;57757;53.198;19.646;2023-04-03T00:13:36;101098.17;;;0.29;63.90
70338;BME280;57757;53.198;19.646;2023-04-03T00:16:07;101096.96;;;0.29;63.87
70338;BME280;57757;53.198;19.646;2023-04-03T00:18:35;101099.60;;;0.26;63.85
70338;BME280;57757;53.198;19.646;2023-04-03T00:21:04;101097.66;;;0.24;63.90
70338;BME280;57757;53.198;19.646;2023-04-03T00:23:32;101094.89;;;0.22;63.88
70338;BME280;57757;53.198;19.646;2023-04-03T00:26:00;101095.82;;;0.20;63.76
70338;BME280;57757;53.198;19.646;2023-04-03T00:28:27;101094.95;;;0.19;63.82
70338;BME280;57757;53.198;19.646;2023-04-03T00:30:55;101096.95;;;0.18;63.99
70338;BME280;57757;53.198;19.646;2023-04-03T00:33:22;101101.36;;;0.17;63.94
70338;BME280;57757;53.198;19.646;2023-04-03T00:35:51;101100.64;;;0.16;63.81
70338;BME280;57757;53.198;19.646;2023-04-03T00:38:19;101103.02;;;0.15;63.89
70338;BME280;57757;53.198;19.646;2023-04-03T00:40:48;101101.52;;;0.11;63.73
70338;BME280;57757;53.198;19.646;2023-04-03T00:43:24;101102.61;;;0.08;63.81
70338;BME280;57757;53.198;19.646;2023-04-03T00:45:55;101101.70;;;0.06;63.81
70338;BME280;57757;53.198;19.646;2023-04-03T00:48:31;101104.36;;;0.05;63.78
70338;BME280;57757;53.198;19.646;2023-04-03T00:51:00;101102.78;;;0.03;63.66
70338;BME280;57757;53.198;19.646;2023-04-03T00:53:33;101102.07;;;0.02;63.78
70338;BME280;57757;53.198;19.646;2023-04-03T00:56:06;101105.30;;;0.02;63.78
70338;BME280;57757;53.198;19.646;2023-04-03T00:58:41;101105.80;;;0.01;63.82
70338;BME280;57757;53.198;19.646;2023-04-03T01:01:12;101104.70;;;-0.02;63.74
70338;BME280;57757;53.198;19.646;2023-04-03T01:03:42;101103.05;;;-0.05;63.75
70338;BME280;57757;53.198;19.646;2023-04-03T01:06:10;101109.47;;;-0.07;63.91
70338;BME280;57757;53.198;19.646;2023-04-03T01:08:38;101108.05;;;-0.08;63.78
70338;BME280;57757;53.198;19.646;2023-04-03T01:11:06;101109.06;;;-0.09;63.87
70338;BME280;57757;53.198;19.646;2023-04-03T01:13:34;101112.63;;;-0.09;63.89
70338;BME280;57757;53.198;19.646;2023-04-03T01:16:04;101114.34;;;-0.09;63.80
70338;BME280;57757;53.198;19.646;2023-04-03T01:18:34;101116.85;;;-0.11;63.87
70338;BME280;57757;53.198;19.646;2023-04-03T01:21:42;101122.94;;;-0.13;63.87
70338;BME280;57757;53.198;19.646;2023-04-03T01:24:11;101121.17;;;-0.14;63.84
70338;BME280;57757;53.198;19.646;2023-04-03T01:26:45;101121.84;;;-0.14;63.88
70338;BME280;57757;53.198;19.646;2023-04-03T01:29:13;101122.30;;;-0.16;63.85
70338;BME280;57757;53.198;19.646;2023-04-03T01:34:28;101126.54;;;-0.17;63.86
70338;BME280;57757;53.198;19.646;2023-04-03T01:36:56;101131.91;;;-0.20;63.82
70338;BME280;57757;53.198;19.646;2023-04-03T01:39:24;101131.66;;;-0.23;63.79
70338;BME280;57757;53.198;19.646;2023-04-03T01:41:52;101129.83;;;-0.26;63.84
70338;BME280;57757;53.198;19.646;2023-04-03T01:44:20;101130.98;;;-0.27;63.87
70338;BME280;57757;53.198;19.646;2023-04-03T01:46:48;101130.65;;;-0.27;63.90
70338;BME280;57757;53.198;19.646;2023-04-03T01:49:15;101135.25;;;-0.27;63.90
70338;BME280;57757;53.198;19.646;2023-04-03T01:51:43;101134.52;;;-0.28;63.90
70338;BME280;57757;53.198;19.646;2023-04-03T01:54:10;101133.80;;;-0.29;63.81
70338;BME280;57757;53.198;19.646;2023-04-03T01:56:38;101139.23;;;-0.30;63.83
70338;BME280;57757;53.198;19.646;2023-04-03T01:59:06;101138.34;;;-0.32;63.86
70338;BME280;57757;53.198;19.646;2023-04-03T02:01:34;101139.61;;;-0.34;63.70
70338;BME280;57757;53.198;19.646;2023-04-03T02:04:01;101138.72;;;-0.35;63.78
70338;BME280;57757;53.198;19.646;2023-04-03T02:06:29;101142.79;;;-0.36;63.88
70338;BME280;57757;53.198;19.646;2023-04-03T02:08:56;101140.52;;;-0.37;63.76
70338;BME280;57757;53.198;19.646;2023-04-03T02:11:24;101147.30;;;-0.39;63.74
70338;BME280;57757;53.198;19.646;2023-04-03T02:13:52;101151.27;;;-0.38;63.90
70338;BME280;57757;53.198;19.646;2023-04-03T02:16:19;101150.04;;;-0.39;63.84
70338;BME280;57757;53.198;19.646;2023-04-03T02:18:47;101149.17;;;-0.39;63.95
70338;BME280;57757;53.198;19.646;2023-04-03T02:21:14;101149.83;;;-0.40;63.90
70338;BME280;57757;53.198;19.646;2023-04-03T02:23:42;101150.27;;;-0.41;63.91
70338;BME280;57757;53.198;19.646;2023-04-03T02:26:13;101151.28;;;-0.42;63.77
70338;BME280;57757;53.198;19.646;2023-04-03T02:28:41;101151.87;;;-0.44;63.83
70338;BME280;57757;53.198;19.646;2023-04-03T02:31:10;101156.27;;;-0.46;63.93
70338;BME280;57757;53.198;19.646;2023-04-03T02:33:38;101157.06;;;-0.48;63.85
70338;BME280;57757;53.198;19.646;2023-04-03T02:36:07;101158.70;;;-0.50;63.87
70338;BME280;57757;53.198;19.646;2023-04-03T02:38:35;101160.54;;;-0.51;63.86
70338;BME280;57757;53.198;19.646;2023-04-03T02:41:06;101162.73;;;-0.52;63.88
70338;BME280;57757;53.198;19.646;2023-04-03T02:43:34;101165.59;;;-0.53;63.79
70338;BME280;57757;53.198;19.646;2023-04-03T02:46:02;101169.83;;;-0.54;63.94
70338;BME280;57757;53.198;19.646;2023-04-03T02:48:30;101172.89;;;-0.55;63.95
70338;BME280;57757;53.198;19.646;2023-04-03T02:50:57;101177.58;;;-0.57;63.90
70338;BME280;57757;53.198;19.646;2023-04-03T02:53:25;101173.80;;;-0.58;63.94
70338;BME280;57757;53.198;19.646;2023-04-03T02:55:52;101172.42;;;-0.58;63.93
70338;BME280;57757;53.198;19.646;2023-04-03T02:58:20;101175.10;;;-0.59;63.95
70338;BME280;57757;53.198;19.646;2023-04-03T03:00:47;101176.21;;;-0.61;63.91
70338;BME280;57757;53.198;19.646;2023-04-03T03:03:15;101178.90;;;-0.63;63.99
70338;BME280;57757;53.198;19.646;2023-04-03T03:05:43;101179.23;;;-0.63;63.96
70338;BME280;57757;53.198;19.646;2023-04-03T03:08:11;101177.10;;;-0.65;63.86
70338;BME280;57757;53.198;19.646;2023-04-03T03:10:38;101178.08;;;-0.67;63.96
70338;BME280;57757;53.198;19.646;2023-04-03T03:13:06;101176.16;;;-0.67;63.97
70338;BME280;57757;53.198;19.646;2023-04-03T03:15:33;101175.92;;;-0.69;63.97
70338;BME280;57757;53.198;19.646;2023-04-03T03:18:01;101182.73;;;-0.70;64.00
70338;BME280;57757;53.198;19.646;2023-04-03T03:20:29;101183.17;;;-0.71;63.98
70338;BME280;57757;53.198;19.646;2023-04-03T03:22:56;101181.41;;;-0.73;63.94
70338;BME280;57757;53.198;19.646;2023-04-03T03:25:24;101182.88;;;-0.75;64.01
70338;BME280;57757;53.198;19.646;2023-04-03T03:27:52;101182.48;;;-0.76;63.94
70338;BME280;57757;53.198;19.646;2023-04-03T03:30:19;101182.30;;;-0.77;64.06
70338;BME280;57757;53.198;19.646;2023-04-03T03:32:47;101182.77;;;-0.78;64.02
70338;BME280;57757;53.198;19.646;2023-04-03T03:35:15;101181.75;;;-0.78;64.11
70338;BME280;57757;53.198;19.646;2023-04-03T03:37:42;101181.17;;;-0.79;64.09
70338;BME280;57757;53.198;19.646;2023-04-03T03:40:10;101186.78;;;-0.80;64.16
70338;BME280;57757;53.198;19.646;2023-04-03T03:42:39;101190.72;;;-0.80;64.20
70338;BME280;57757;53.198;19.646;2023-04-03T03:45:08;101189.96;;;-0.82;64.12
70338;BME280;57757;53.198;19.646;2023-04-03T03:47:36;101188.20;;;-0.83;64.19
70338;BME280;57757;53.198;19.646;2023-04-03T03:50:04;101194.30;;;-0.84;63.95
70338;BME280;57757;53.198;19.646;2023-04-03T03:52:35;101197.54;;;-0.85;64.21
70338;BME280;57757;53.198;19.646;2023-04-03T03:55:04;101203.19;;;-0.84;64.27
70338;BME280;57757;53.198;19.646;2023-04-03T03:57:37;101205.94;;;-0.83;64.22
70338;BME280;57757;53.198;19.646;2023-04-03T04:00:06;101207.66;;;-0.83;64.20
70338;BME280;57757;53.198;19.646;2023-04-03T04:02:34;101212.10;;;-0.83;64.28
70338;BME280;57757;53.198;19.646;2023-04-03T04:05:02;101214.45;;;-0.84;64.18
70338;BME280;57757;53.198;19.646;2023-04-03T04:07:30;101214.91;;;-0.86;64.15
70338;BME280;57757;53.198;19.646;2023-04-03T04:09:57;101213.65;;;-0.87;64.12
70338;BME280;57757;53.198;19.646;2023-04-03T04:12:25;101216.46;;;-0.89;64.16
70338;BME280;57757;53.198;19.646;2023-04-03T04:14:52;101213.83;;;-0.91;64.21
70338;BME280;57757;53.198;19.646;2023-04-03T04:17:21;101215.70;;;-0.91;64.30
70338;BME280;57757;53.198;19.646;2023-04-03T04:19:49;101216.89;;;-0.91;64.21
70338;BME280;57757;53.198;19.646;2023-04-03T04:22:16;101216.71;;;-0.92;64.25
70338;BME280;57757;53.198;19.646;2023-04-03T04:24:44;101222.19;;;-0.91;64.23
70338;BME280;57757;53.198;19.646;2023-04-03T04:27:12;101225.09;;;-0.91;64.19
70338;BME280;57757;53.198;19.646;2023-04-03T04:29:40;101226.80;;;-0.91;64.30
70338;BME280;57757;53.198;19.646;2023-04-03T04:32:07;101228.09;;;-0.89;64.32
70338;BME280;57757;53.198;19.646;2023-04-03T04:34:36;101230.23;;;-0.87;64.38
70338;BME280;57757;53.198;19.646;2023-04-03T04:37:03;101230.45;;;-0.86;64.43
70338;BME280;57757;53.198;19.646;2023-04-03T04:39:31;101231.73;;;-0.83;64.43
70338;BME280;57757;53.198;19.646;2023-04-03T04:41:58;101231.49;;;-0.81;64.46
70338;BME280;57757;53.198;19.646;2023-04-03T04:44:26;101230.17;;;-0.80;64.44
70338;BME280;57757;53.198;19.646;2023-04-03T04:46:54;101230.78;;;-0.77;64.45
70338;BME280;57757;53.198;19.646;2023-04-03T04:49:21;101237.56;;;-0.74;64.44
70338;BME280;57757;53.198;19.646;2023-04-03T04:51:50;101233.05;;;-0.71;64.51
70338;BME280;57757;53.198;19.646;2023-04-03T04:54:19;101241.25;;;-0.67;64.53
70338;BME280;57757;53.198;19.646;2023-04-03T04:56:46;101246.09;;;-0.62;64.43
70338;BME280;57757;53.198;19.646;2023-04-03T04:59:14;101246.92;;;-0.58;64.49
70338;BME280;57757;53.198;19.646;2023-04-03T05:01:42;101247.65;;;-0.52;64.47
70338;BME280;57757;53.198;19.646;2023-04-03T05:04:10;101250.38;;;-0.47;64.47
70338;BME280;57757;53.198;19.646;2023-04-03T05:06:39;101247.33;;;-0.42;64.52
70338;BME280;57757;53.198;19.646;2023-04-03T05:09:07;101247.48;;;-0.38;64.31
70338;BME280;57757;53.198;19.646;2023-04-03T05:11:36;101245.74;;;-0.34;64.28
70338;BME280;57757;53.198;19.646;2023-04-03T05:14:03;101248.84;;;-0.29;64.39
70338;BME280;57757;53.198;19.646;2023-04-03T05:16:34;101250.34;;;-0.26;64.36
70338;BME280;57757;53.198;19.646;2023-04-03T05:19:02;101250.52;;;-0.21;64.26
70338;BME280;57757;53.198;19.646;2023-04-03T05:21:30;101250.80;;;-0.18;64.30
70338;BME280;57757;53.198;19.646;2023-04-03T05:24:01;101250.79;;;-0.13;64.37
70338;BME280;57757;53.198;19.646;2023-04-03T05:26:31;101254.55;;;-0.09;64.19
70338;BME280;57757;53.198;19.646;2023-04-03T05:28:59;101252.33;;;-0.04;64.23
70338;BME280;57757;53.198;19.646;2023-04-03T05:31:26;101257.31;;;0.01;64.15
70338;BME280;57757;53.198;19.646;2023-04-03T05:33:57;101256.44;;;0.05;64.11
70338;BME280;57757;53.198;19.646;2023-04-03T05:36:26;101260.52;;;0.10;64.21
70338;BME280;57757;53.198;19.646;2023-04-03T05:38:54;101260.73;;;0.15;64.20
70338;BME280;57757;53.198;19.646;2023-04-03T05:41:23;101262.21;;;0.18;64.07
70338;BME280;57757;53.198;19.646;2023-04-03T05:43:52;101260.81;;;0.22;64.16
70338;BME280;57757;53.198;19.646;2023-04-03T05:46:20;101264.92;;;0.27;64.00
70338;BME280;57757;53.198;19.646;2023-04-03T05:48:49;101262.36;;;0.32;64.05
70338;BME280;57757;53.198;19.646;2023-04-03T05:51:27;101263.75;;;0.37;64.03
70338;BME280;57757;53.198;19.646;2023-04-03T05:54:03;101261.69;;;0.42;63.88
70338;BME280;57757;53.198;19.646;2023-04-03T05:56:33;101263.27;;;0.49;64.03
70338;BME280;57757;53.198;19.646;2023-04-03T05:59:01;101261.70;;;0.53;63.89
70338;BME280;57757;53.198;19.646;2023-04-03T06:01:28;101260.75;;;0.55;63.67
70338;BME280;57757;53.198;19.646;2023-04-03T06:03:57;101264.44;;;0.58;63.71
70338;BME280;57757;53.198;19.646;2023-04-03T06:06:43;101265.36;;;0.65;63.90
70338;BME280;57757;53.198;19.646;2023-04-03T06:09:12;101270.33;;;0.70;63.87
70338;BME280;57757;53.198;19.646;2023-04-03T06:11:40;101268.58;;;0.74;63.68
70338;BME280;57757;53.198;19.646;2023-04-03T06:14:13;101265.45;;;0.77;63.68
70338;BME280;57757;53.198;19.646;2023-04-03T06:16:41;101264.41;;;0.82;63.73
70338;BME280;57757;53.198;19.646;2023-04-03T06:19:12;101264.23;;;0.87;63.44
70338;BME280;57757;53.198;19.646;2023-04-03T06:21:40;101266.00;;;0.89;63.45
70338;BME280;57757;53.198;19.646;2023-04-03T06:24:09;101262.33;;;0.92;63.46
70338;BME280;57757;53.198;19.646;2023-04-03T06:26:40;101264.73;;;0.97;63.48
70338;BME280;57757;53.198;19.646;2023-04-03T06:29:10;101269.02;;;1.03;63.53
70338;BME280;57757;53.198;19.646;2023-04-03T06:31:42;101268.70;;;1.09;63.44
70338;BME280;57757;53.198;19.646;2023-04-03T06:34:11;101270.35;;;1.12;63.32
70338;BME280;57757;53.198;19.646;2023-04-03T06:36:40;101276.23;;;1.14;63.19
70338;BME280;57757;53.198;19.646;2023-04-03T06:39:09;101283.05;;;1.18;63.28
70338;BME280;57757;53.198;19.646;2023-04-03T06:41:40;101282.94;;;1.20;63.25
70338;BME280;57757;53.198;19.646;2023-04-03T06:44:08;101291.11;;;1.23;63.11
70338;BME280;57757;53.198;19.646;2023-04-03T06:46:38;101291.42;;;1.28;63.05
70338;BME280;57757;53.198;19.646;2023-04-03T06:49:06;101297.04;;;1.32;63.08
70338;BME280;57757;53.198;19.646;2023-04-03T06:51:41;101293.89;;;1.35;63.02
70338;BME280;57757;53.198;19.646;2023-04-03T06:54:09;101300.48;;;1.37;62.88
70338;BME280;57757;53.198;19.646;2023-04-03T06:56:37;101296.27;;;1.40;63.03
70338;BME280;57757;53.198;19.646;2023-04-03T06:59:04;101303.88;;;1.48;63.07
70338;BME280;57757;53.198;19.646;2023-04-03T07:01:32;101305.30;;;1.55;63.21
70338;BME280;57757;53.198;19.646;2023-04-03T07:04:00;101302.76;;;1.62;62.87
70338;BME280;57757;53.198;19.646;2023-04-03T07:06:28;101303.27;;;1.67;62.88
70338;BME280;57757;53.198;19.646;2023-04-03T07:08:55;101304.84;;;1.74;62.93
70338;BME280;57757;53.198;19.646;2023-04-03T07:11:29;101302.27;;;1.80;63.02
70338;BME280;57757;53.198;19.646;2023-04-03T07:24:35;101305.20;;;2.53;62.18
70338;BME280;57757;53.198;19.646;2023-04-03T07:27:03;101313.52;;;2.68;61.68
70338;BME280;57757;53.198;19.646;2023-04-03T07:29:31;101319.10;;;2.66;61.81
70338;BME280;57757;53.198;19.646;2023-04-03T07:31:59;101315.73;;;2.68;61.98
70338;BME280;57757;53.198;19.646;2023-04-03T07:34:27;101318.21;;;2.70;62.04
70338;BME280;57757;53.198;19.646;2023-04-03T07:36:55;101317.81;;;2.74;62.08
70338;BME280;57757;53.198;19.646;2023-04-03T07:39:24;101326.55;;;2.80;62.20
70338;BME280;57757;53.198;19.646;2023-04-03T07:41:52;101331.22;;;2.88;62.30
70338;BME280;57757;53.198;19.646;2023-04-03T07:44:19;101329.32;;;2.94;62.17
70338;BME280;57757;53.198;19.646;2023-04-03T07:46:47;101327.41;;;3.00;62.15
70338;BME280;57757;53.198;19.646;2023-04-03T07:49:17;101333.89;;;3.05;62.15
70338;BME280;57757;53.198;19.646;2023-04-03T07:51:45;101329.88;;;3.10;62.18
70338;BME280;57757;53.198;19.646;2023-04-03T07:54:15;101327.06;;;3.21;62.72
70338;BME280;57757;53.198;19.646;2023-04-03T07:56:43;101329.55;;;3.46;62.98
70338;BME280;57757;53.198;19.646;2023-04-03T07:59:11;101329.91;;;3.68;62.86
70338;BME280;57757;53.198;19.646;2023-04-03T08:01:39;101323.45;;;3.87;62.26
70338;BME280;57757;53.198;19.646;2023-04-03T08:04:06;101322.93;;;3.95;61.98
70338;BME280;57757;53.198;19.646;2023-04-03T08:06:34;101321.02;;;4.02;61.83
70338;BME280;57757;53.198;19.646;2023-04-03T08:09:15;101329.37;;;4.07;61.47
70338;BME280;57757;53.198;19.646;2023-04-03T08:11:43;101328.30;;;4.13;61.67
70338;BME280;57757;53.198;19.646;2023-04-03T08:14:12;101328.73;;;4.26;61.79
70338;BME280;57757;53.198;19.646;2023-04-03T08:16:47;101326.98;;;4.33;61.76
70338;BME280;57757;53.198;19.646;2023-04-03T08:19:15;101329.69;;;4.47;61.69
70338;BME280;57757;53.198;19.646;2023-04-03T08:21:54;101324.40;;;4.59;61.65
70338;BME280;57757;53.198;19.646;2023-04-03T08:24:22;101323.20;;;4.69;61.50
70338;BME280;57757;53.198;19.646;2023-04-03T08:26:50;101324.20;;;4.66;61.13
70338;BME280;57757;53.198;19.646;2023-04-03T08:29:18;101327.30;;;4.67;61.04
70338;BME280;57757;53.198;19.646;2023-04-03T08:31:46;101327.63;;;4.56;60.75
70338;BME280;57757;53.198;19.646;2023-04-03T08:34:17;101327.91;;;4.53;60.65
70338;BME280;57757;53.198;19.646;2023-04-03T08:36:47;101329.92;;;4.60;61.02
70338;BME280;57757;53.198;19.646;2023-04-03T08:39:15;101331.14;;;4.79;61.26
70338;BME280;57757;53.198;19.646;2023-04-03T08:41:45;101331.92;;;4.93;61.20
70338;BME280;57757;53.198;19.646;2023-04-03T08:50:19;101333.58;;;5.40;60.81
70338;BME280;57757;53.198;19.646;2023-04-03T08:52:55;101334.02;;;5.36;61.13
70338;BME280;57757;53.198;19.646;2023-04-03T08:58:15;101331.10;;;6.05;61.93
70338;BME280;57757;53.198;19.646;2023-04-03T09:03:34;101334.20;;;6.45;60.38
70338;BME280;57757;53.198;19.646;2023-04-03T09:06:06;101334.92;;;6.49;60.25
70338;BME280;57757;53.198;19.646;2023-04-03T09:08:44;101331.02;;;6.54;60.13
70338;BME280;57757;53.198;19.646;2023-04-03T09:11:42;101330.31;;;6.69;60.15
70338;BME280;57757;53.198;19.646;2023-04-03T09:17:03;101319.67;;;7.13;60.23
70338;BME280;57757;53.198;19.646;2023-04-03T09:19:36;101330.27;;;7.18;59.81
70338;BME280;57757;53.198;19.646;2023-04-03T09:22:25;101325.61;;;7.21;60.13
70338;BME280;57757;53.198;19.646;2023-04-03T09:27:43;101321.84;;;7.47;60.11
70338;BME280;57757;53.198;19.646;2023-04-03T09:30:27;101321.05;;;7.59;59.87
70338;BME280;57757;53.198;19.646;2023-04-03T09:32:56;101320.95;;;7.67;59.68
70338;BME280;57757;53.198;19.646;2023-04-03T09:35:31;101320.09;;;7.69;59.05
70338;BME280;57757;53.198;19.646;2023-04-03T09:38:20;101324.95;;;7.48;58.71
70338;BME280;57757;53.198;19.646;2023-04-03T09:41:02;101323.20;;;7.45;58.75
70338;BME280;57757;53.198;19.646;2023-04-03T09:43:33;101318.46;;;7.57;59.96
70338;BME280;57757;53.198;19.646;2023-04-03T09:49:05;101324.48;;;8.14;59.31
70338;BME280;57757;53.198;19.646;2023-04-03T09:51:38;101323.80;;;8.14;58.76
70338;BME280;57757;53.198;19.646;2023-04-03T09:54:29;101319.05;;;7.99;58.22
70338;BME280;57757;53.198;19.646;2023-04-03T09:59:58;101324.52;;;7.60;58.28
70338;BME280;57757;53.198;19.646;2023-04-03T10:02:38;101322.94;;;7.54;58.28
70338;BME280;57757;53.198;19.646;2023-04-03T10:10:48;101308.95;;;8.77;58.80
70338;BME280;57757;53.198;19.646;2023-04-03T10:13:20;101306.91;;;9.19;58.77
70338;BME280;57757;53.198;19.646;2023-04-03T10:16:03;101304.08;;;9.66;58.93
70338;BME280;57757;53.198;19.646;2023-04-03T10:21:40;101302.63;;;10.74;58.65
70338;BME280;57757;53.198;19.646;2023-04-03T10:24:25;101296.27;;;11.10;58.30
70338;BME280;57757;53.198;19.646;2023-04-03T10:27:13;101295.52;;;11.38;57.85
70338;BME280;57757;53.198;19.646;2023-04-03T10:38:04;101283.14;;;12.06;58.76
70338;BME280;57757;53.198;19.646;2023-04-03T10:46:34;101269.16;;;13.27;57.28
70338;BME280;57757;53.198;19.646;2023-04-03T10:49:24;101269.44;;;13.22;56.71
70338;BME280;57757;53.198;19.646;2023-04-03T10:52:22;101263.14;;;13.32;56.74
70338;BME280;57757;53.198;19.646;2023-04-03T10:55:16;101270.86;;;13.40;56.53
70338;BME280;57757;53.198;19.646;2023-04-03T10:57:49;101265.73;;;13.53;56.37
70338;BME280;57757;53.198;19.646;2023-04-03T11:00:34;101265.36;;;13.73;56.70
70338;BME280;57757;53.198;19.646;2023-04-03T11:03:15;101267.08;;;14.10;56.73
70338;BME280;57757;53.198;19.646;2023-04-03T11:05:48;101268.48;;;14.43;56.60
70338;BME280;57757;53.198;19.646;2023-04-03T11:08:33;101251.67;;;14.59;56.14
70338;BME280;57757;53.198;19.646;2023-04-03T11:11:08;101261.48;;;14.66;55.70
70338;BME280;57757;53.198;19.646;2023-04-03T11:13:43;101266.23;;;14.34;54.81
70338;BME280;57757;53.198;19.646;2023-04-03T11:16:20;101260.91;;;14.12;54.80
70338;BME280;57757;53.198;19.646;2023-04-03T11:19:03;101268.39;;;14.05;54.47
70338;BME280;57757;53.198;19.646;2023-04-03T11:21:42;101273.48;;;13.59;54.38
70338;BME280;57757;53.198;19.646;2023-04-03T11:24:21;101269.88;;;13.65;55.25
70338;BME280;57757;53.198;19.646;2023-04-03T11:26:52;101261.45;;;13.85;54.59
70338;BME280;57757;53.198;19.646;2023-04-03T11:29:41;101264.66;;;13.73;54.26
70338;BME280;57757;53.198;19.646;2023-04-03T11:32:34;101261.42;;;13.86;54.46
70338;BME280;57757;53.198;19.646;2023-04-03T11:35:09;101256.54;;;14.11;54.52
70338;BME280;57757;53.198;19.646;2023-04-03T11:37:40;101250.22;;;14.05;54.14
70338;BME280;57757;53.198;19.646;2023-04-03T11:42:49;101259.77;;;13.35;53.57
70338;BME280;57757;53.198;19.646;2023-04-03T11:56:02;101240.45;;;13.94;53.99
70338;BME280;57757;53.198;19.646;2023-04-03T11:58:32;101231.89;;;14.36;53.62
70338;BME280;57757;53.198;19.646;2023-04-03T12:03:56;101228.30;;;14.39;53.11
70338;BME280;57757;53.198;19.646;2023-04-03T12:08:55;101223.75;;;14.62;52.85
70338;BME280;57757;53.198;19.646;2023-04-03T12:11:29;101232.36;;;14.54;52.47
70338;BME280;57757;53.198;19.646;2023-04-03T12:18:56;101220.70;;;14.80;52.80
70338;BME280;57757;53.198;19.646;2023-04-03T12:29:21;101226.57;;;15.51;51.44
70338;BME280;57757;53.198;19.646;2023-04-03T12:46:23;101208.98;;;16.93;51.32
70338;BME280;57757;53.198;19.646;2023-04-03T12:51:31;101202.66;;;17.82;51.50
70338;BME280;57757;53.198;19.646;2023-04-03T12:54:47;101205.45;;;18.42;51.16
70338;BME280;57757;53.198;19.646;2023-04-03T12:57:21;101205.59;;;18.38;50.24
70338;BME280;57757;53.198;19.646;2023-04-03T12:59:51;101201.30;;;18.67;50.62
70338;BME280;57757;53.198;19.646;2023-04-03T13:02:25;101194.58;;;19.05;50.68
70338;BME280;57757;53.198;19.646;2023-04-03T13:04:57;101196.80;;;18.78;49.75
70338;BME280;57757;53.198;19.646;2023-04-03T13:07:33;101210.66;;;18.03;49.30
70338;BME280;57757;53.198;19.646;2023-04-03T13:10:14;101206.71;;;17.63;49.37
70338;BME280;57757;53.198;19.646;2023-04-03T13:15:25;101205.38;;;16.23;48.81
70338;BME280;57757;53.198;19.646;2023-04-03T13:17:54;101216.14;;;15.35;48.91
70338;BME280;57757;53.198;19.646;2023-04-03T13:20:30;101211.89;;;14.89;49.16
70338;BME280;57757;53.198;19.646;2023-04-03T13:23:05;101210.51;;;15.42;50.24
70338;BME280;57757;53.198;19.646;2023-04-03T13:25:41;101203.94;;;16.47;50.63
70338;BME280;57757;53.198;19.646;2023-04-03T13:28:13;101203.52;;;17.58;50.42
70338;BME280;57757;53.198;19.646;2023-04-03T13:30:56;101207.80;;;18.09;49.53
70338;BME280;57757;53.198;19.646;2023-04-03T13:33:28;101210.16;;;17.69;48.80
70338;BME280;57757;53.198;19.646;2023-04-03T13:36:02;101213.15;;;16.94;48.02
70338;BME280;57757;53.198;19.646;2023-04-03T13:38:32;101206.78;;;16.74;48.32
70338;BME280;57757;53.198;19.646;2023-04-03T13:43:54;101209.31;;;17.03;47.96
70338;BME280;57757;53.198;19.646;2023-04-03T13:46:33;101210.15;;;16.28;47.45
70338;BME280;57757;53.198;19.646;2023-04-03T13:49:17;101212.53;;;15.84;47.82
70338;BME280;57757;53.198;19.646;2023-04-03T13:51:45;101201.85;;;16.35;48.34
70338;BME280;57757;53.198;19.646;2023-04-03T13:54:38;101202.10;;;17.08;48.45
70338;BME280;57757;53.198;19.646;2023-04-03T13:57:15;101207.06;;;16.97;47.37
70338;BME280;57757;53.198;19.646;2023-04-03T13:59:43;101207.27;;;16.07;46.64
70338;BME280;57757;53.198;19.646;2023-04-03T14:04:53;101212.22;;;15.37;47.58
70338;BME280;57757;53.198;19.646;2023-04-03T14:07:26;101210.95;;;15.26;47.01
70338;BME280;57757;53.198;19.646;2023-04-03T14:09:54;101213.07;;;14.69;46.67
70338;BME280;57757;53.198;19.646;2023-04-03T14:15:24;101217.27;;;14.62;47.62
70338;BME280;57757;53.198;19.646;2023-04-03T14:17:55;101213.98;;;14.53;47.05
70338;BME280;57757;53.198;19.646;2023-04-03T14:20:26;101215.58;;;14.05;46.55
70338;BME280;57757;53.198;19.646;2023-04-03T14:22:54;101218.80;;;13.40;46.35
70338;BME280;57757;53.198;19.646;2023-04-03T14:25:22;101218.34;;;13.06;46.44
70338;BME280;57757;53.198;19.646;2023-04-03T14:27:53;101211.84;;;13.57;47.11
70338;BME280;57757;53.198;19.646;2023-04-03T14:30:27;101216.36;;;13.49;46.69
70338;BME280;57757;53.198;19.646;2023-04-03T14:32:59;101215.19;;;12.96;46.18
70338;BME280;57757;53.198;19.646;2023-04-03T14:35:28;101218.14;;;12.42;46.20
70338;BME280;57757;53.198;19.646;2023-04-03T14:37:56;101219.55;;;11.89;46.10
70338;BME280;57757;53.198;19.646;2023-04-03T14:40:27;101223.98;;;11.83;46.65
70338;BME280;57757;53.198;19.646;2023-04-03T14:42:55;101216.73;;;12.54;47.04
70338;BME280;57757;53.198;19.646;2023-04-03T14:45:24;101215.94;;;12.71;46.53
70338;BME280;57757;53.198;19.646;2023-04-03T14:47:54;101210.30;;;12.64;46.12
70338;BME280;57757;53.198;19.646;2023-04-03T14:50:25;101221.52;;;12.12;45.70
70338;BME280;57757;53.198;19.646;2023-04-03T14:52:56;101223.27;;;11.53;45.55
70338;BME280;57757;53.198;19.646;2023-04-03T14:55:25;101231.73;;;11.07;46.07
70338;BME280;57757;53.198;19.646;2023-04-03T14:57:53;101228.57;;;11.09;46.48
70338;BME280;57757;53.198;19.646;2023-04-03T15:00:22;101229.21;;;10.72;45.92
70338;BME280;57757;53.198;19.646;2023-04-03T15:02:50;101232.48;;;10.20;45.74